sensor_id;sensor_type;location;lat;lon;timestamp;P1;durP1;ratioP1;P2;durP2;ratioP2
64037;SDS011;54641;50.168;8.492;2022-10-26T00:01:05;6.10;;;2.20;;
64037;SDS011;54641;50.168;8.492;2022-10-26T00:06:08;5.80;;;1.60;;
64037;SDS011;54641;50.168;8.492;2022-10-26T00:08:40;4.10;;;1.70;;
64037;SDS011;54641;50.168;8.492;2022-10-26T00:11:11;7.30;;;1.90;;
64037;SDS011;54641;50.168;8.492;2022-10-26T00:13:42;4.90;;;1.50;;
64037;SDS011;54641;50.168;8.492;2022-10-26T00:16:13;3.30;;;1.80;;
64037;SDS011;54641;50.168;8.492;2022-10-26T00:18:45;5.90;;;1.90;;
64037;SDS011;54641;50.168;8.492;2022-10-26T00:21:16;4.50;;;1.60;;
64037;SDS011;54641;50.168;8.492;2022-10-26T00:23:47;5.60;;;2.30;;
64037;SDS011;54641;50.168;8.492;2022-10-26T00:26:17;5.40;;;2.00;;
64037;SDS011;54641;50.168;8.492;2022-10-26T00:28:48;7.90;;;2.00;;
64037;SDS011;54641;50.168;8.492;2022-10-26T00:31:18;5.30;;;2.30;;
64037;SDS011;54641;50.168;8.492;2022-10-26T00:33:52;5.40;;;1.90;;
64037;SDS011;54641;50.168;8.492;2022-10-26T00:36:22;8.20;;;2.60;;
64037;SDS011;54641;50.168;8.492;2022-10-26T00:38:54;9.90;;;3.80;;
64037;SDS011;54641;50.168;8.492;2022-10-26T00:41:26;5.70;;;1.80;;
64037;SDS011;54641;50.168;8.492;2022-10-26T00:46:28;7.00;;;2.30;;
64037;SDS011;54641;50.168;8.492;2022-10-26T00:49:02;7.80;;;2.30;;
64037;SDS011;54641;50.168;8.492;2022-10-26T00:51:37;11.70;;;2.00;;
64037;SDS011;54641;50.168;8.492;2022-10-26T00:54:10;8.90;;;3.20;;
64037;SDS011;54641;50.168;8.492;2022-10-26T00:56:46;7.20;;;1.90;;
64037;SDS011;54641;50.168;8.492;2022-10-26T00:59:18;8.20;;;2.30;;
64037;SDS011;54641;50.168;8.492;2022-10-26T01:01:50;9.40;;;2.50;;
64037;SDS011;54641;50.168;8.492;2022-10-26T01:04:21;6.30;;;2.00;;
64037;SDS011;54641;50.168;8.492;2022-10-26T01:06:52;7.60;;;2.80;;
64037;SDS011;54641;50.168;8.492;2022-10-26T01:09:23;6.50;;;2.20;;
64037;SDS011;54641;50.168;8.492;2022-10-26T01:11:54;8.30;;;2.20;;
64037;SDS011;54641;50.168;8.492;2022-10-26T01:14:24;4.20;;;1.90;;
64037;SDS011;54641;50.168;8.492;2022-10-26T01:16:59;9.60;;;2.30;;
64037;SDS011;54641;50.168;8.492;2022-10-26T01:19:46;5.40;;;2.20;;
64037;SDS011;54641;50.168;8.492;2022-10-26T01:22:28;4.30;;;2.10;;
64037;SDS011;54641;50.168;8.492;2022-10-26T01:25:02;5.40;;;1.90;;
64037;SDS011;54641;50.168;8.492;2022-10-26T01:27:39;4.70;;;1.80;;
64037;SDS011;54641;50.168;8.492;2022-10-26T01:33:08;5.90;;;2.10;;
64037;SDS011;54641;50.168;8.492;2022-10-26T01:35:45;5.70;;;2.00;;
64037;SDS011;54641;50.168;8.492;2022-10-26T01:38:23;11.30;;;2.00;;
64037;SDS011;54641;50.168;8.492;2022-10-26T01:40:59;8.10;;;2.20;;
64037;SDS011;54641;50.168;8.492;2022-10-26T01:43:34;7.90;;;1.70;;
64037;SDS011;54641;50.168;8.492;2022-10-26T01:48:36;5.20;;;2.40;;
64037;SDS011;54641;50.168;8.492;2022-10-26T01:51:07;5.10;;;2.40;;
64037;SDS011;54641;50.168;8.492;2022-10-26T01:53:42;6.80;;;2.10;;
64037;SDS011;54641;50.168;8.492;2022-10-26T01:56:15;5.20;;;2.10;;
64037;SDS011;54641;50.168;8.492;2022-10-26T01:58:54;11.30;;;2.30;;
64037;SDS011;54641;50.168;8.492;2022-10-26T02:01:43;4.30;;;2.40;;
64037;SDS011;54641;50.168;8.492;2022-10-26T02:04:36;6.40;;;2.60;;
64037;SDS011;54641;50.168;8.492;2022-10-26T02:07:13;7.00;;;2.70;;
64037;SDS011;54641;50.168;8.492;2022-10-26T02:09:52;5.90;;;2.20;;
64037;SDS011;54641;50.168;8.492;2022-10-26T02:12:30;6.80;;;2.60;;
64037;SDS011;54641;50.168;8.492;2022-10-26T02:15:05;5.80;;;2.50;;
64037;SDS011;54641;50.168;8.492;2022-10-26T02:17:41;6.40;;;2.60;;
64037;SDS011;54641;50.168;8.492;2022-10-26T02:20:17;6.50;;;2.30;;
64037;SDS011;54641;50.168;8.492;2022-10-26T02:22:51;8.00;;;2.50;;
64037;SDS011;54641;50.168;8.492;2022-10-26T02:25:25;5.10;;;2.50;;
64037;SDS011;54641;50.168;8.492;2022-10-26T02:27:58;5.40;;;2.40;;
64037;SDS011;54641;50.168;8.492;2022-10-26T02:30:29;6.50;;;2.50;;
64037;SDS011;54641;50.168;8.492;2022-10-26T02:33:01;7.20;;;2.30;;
64037;SDS011;54641;50.168;8.492;2022-10-26T02:35:34;6.20;;;2.70;;
64037;SDS011;54641;50.168;8.492;2022-10-26T02:38:06;6.60;;;2.90;;
64037;SDS011;54641;50.168;8.492;2022-10-26T02:40:38;4.90;;;2.00;;
64037;SDS011;54641;50.168;8.492;2022-10-26T02:43:09;5.10;;;2.10;;
64037;SDS011;54641;50.168;8.492;2022-10-26T02:45:42;6.30;;;2.40;;
64037;SDS011;54641;50.168;8.492;2022-10-26T02:48:14;7.50;;;2.80;;
64037;SDS011;54641;50.168;8.492;2022-10-26T02:50:46;7.00;;;2.50;;
64037;SDS011;54641;50.168;8.492;2022-10-26T02:53:23;5.50;;;2.30;;
64037;SDS011;54641;50.168;8.492;2022-10-26T02:55:55;8.30;;;2.30;;
64037;SDS011;54641;50.168;8.492;2022-10-26T02:58:28;5.40;;;2.30;;
64037;SDS011;54641;50.168;8.492;2022-10-26T03:01:00;5.90;;;2.50;;
64037;SDS011;54641;50.168;8.492;2022-10-26T03:03:31;4.30;;;2.20;;
64037;SDS011;54641;50.168;8.492;2022-10-26T03:06:01;7.50;;;2.60;;
64037;SDS011;54641;50.168;8.492;2022-10-26T03:08:32;8.30;;;3.40;;
64037;SDS011;54641;50.168;8.492;2022-10-26T03:11:03;5.00;;;2.30;;
64037;SDS011;54641;50.168;8.492;2022-10-26T03:13:33;7.30;;;2.20;;
64037;SDS011;54641;50.168;8.492;2022-10-26T03:16:04;10.50;;;2.60;;
64037;SDS011;54641;50.168;8.492;2022-10-26T03:18:35;6.40;;;2.70;;
64037;SDS011;54641;50.168;8.492;2022-10-26T03:21:06;6.40;;;2.40;;
64037;SDS011;54641;50.168;8.492;2022-10-26T03:23:36;6.00;;;2.40;;
64037;SDS011;54641;50.168;8.492;2022-10-26T03:26:08;5.10;;;2.50;;
64037;SDS011;54641;50.168;8.492;2022-10-26T03:28:39;6.10;;;2.50;;
64037;SDS011;54641;50.168;8.492;2022-10-26T03:31:09;7.40;;;2.60;;
64037;SDS011;54641;50.168;8.492;2022-10-26T03:33:40;7.00;;;2.40;;
64037;SDS011;54641;50.168;8.492;2022-10-26T03:36:11;4.30;;;2.40;;
64037;SDS011;54641;50.168;8.492;2022-10-26T03:38:41;5.70;;;2.70;;
64037;SDS011;54641;50.168;8.492;2022-10-26T03:41:12;5.20;;;2.20;;
64037;SDS011;54641;50.168;8.492;2022-10-26T03:43:42;5.80;;;2.20;;
64037;SDS011;54641;50.168;8.492;2022-10-26T03:46:13;6.40;;;2.50;;
64037;SDS011;54641;50.168;8.492;2022-10-26T03:48:43;7.50;;;2.80;;
64037;SDS011;54641;50.168;8.492;2022-10-26T03:51:14;6.20;;;2.50;;
64037;SDS011;54641;50.168;8.492;2022-10-26T03:53:44;6.70;;;2.50;;
64037;SDS011;54641;50.168;8.492;2022-10-26T03:56:15;6.10;;;2.70;;
64037;SDS011;54641;50.168;8.492;2022-10-26T03:58:45;7.50;;;2.00;;
64037;SDS011;54641;50.168;8.492;2022-10-26T04:01:16;8.00;;;2.80;;
64037;SDS011;54641;50.168;8.492;2022-10-26T04:03:47;4.70;;;2.10;;
64037;SDS011;54641;50.168;8.492;2022-10-26T04:06:17;8.90;;;2.90;;
64037;SDS011;54641;50.168;8.492;2022-10-26T04:08:48;5.90;;;2.80;;
64037;SDS011;54641;50.168;8.492;2022-10-26T04:11:20;8.60;;;2.70;;
64037;SDS011;54641;50.168;8.492;2022-10-26T04:13:50;6.10;;;2.10;;
64037;SDS011;54641;50.168;8.492;2022-10-26T04:16:22;7.80;;;2.90;;
64037;SDS011;54641;50.168;8.492;2022-10-26T04:18:57;5.70;;;2.30;;
64037;SDS011;54641;50.168;8.492;2022-10-26T04:21:28;7.70;;;3.00;;
64037;SDS011;54641;50.168;8.492;2022-10-26T04:24:02;5.20;;;2.50;;
64037;SDS011;54641;50.168;8.492;2022-10-26T04:26:32;5.30;;;2.20;;
64037;SDS011;54641;50.168;8.492;2022-10-26T04:29:03;9.50;;;3.20;;
64037;SDS011;54641;50.168;8.492;2022-10-26T04:31:34;8.00;;;2.60;;
64037;SDS011;54641;50.168;8.492;2022-10-26T04:34:05;5.30;;;2.20;;
64037;SDS011;54641;50.168;8.492;2022-10-26T04:36:35;4.10;;;2.10;;
64037;SDS011;54641;50.168;8.492;2022-10-26T04:39:06;7.80;;;2.00;;
64037;SDS011;54641;50.168;8.492;2022-10-26T04:41:36;7.60;;;2.30;;
64037;SDS011;54641;50.168;8.492;2022-10-26T04:44:07;5.80;;;2.40;;
64037;SDS011;54641;50.168;8.492;2022-10-26T04:46:37;7.20;;;2.30;;
64037;SDS011;54641;50.168;8.492;2022-10-26T04:49:07;8.60;;;2.30;;
64037;SDS011;54641;50.168;8.492;2022-10-26T04:51:38;5.60;;;2.30;;
64037;SDS011;54641;50.168;8.492;2022-10-26T04:54:09;7.20;;;2.60;;
64037;SDS011;54641;50.168;8.492;2022-10-26T04:56:39;5.30;;;2.00;;
64037;SDS011;54641;50.168;8.492;2022-10-26T04:59:10;6.00;;;2.60;;
64037;SDS011;54641;50.168;8.492;2022-10-26T05:01:40;8.30;;;3.00;;
64037;SDS011;54641;50.168;8.492;2022-10-26T05:04:11;4.50;;;2.20;;
64037;SDS011;54641;50.168;8.492;2022-10-26T05:06:42;6.70;;;2.30;;
64037;SDS011;54641;50.168;8.492;2022-10-26T05:09:12;4.10;;;2.30;;
64037;SDS011;54641;50.168;8.492;2022-10-26T05:11:43;6.90;;;2.10;;
64037;SDS011;54641;50.168;8.492;2022-10-26T05:14:13;6.80;;;2.70;;
64037;SDS011;54641;50.168;8.492;2022-10-26T05:16:44;6.90;;;2.30;;
64037;SDS011;54641;50.168;8.492;2022-10-26T05:19:14;6.50;;;3.10;;
64037;SDS011;54641;50.168;8.492;2022-10-26T05:21:45;8.90;;;2.80;;
64037;SDS011;54641;50.168;8.492;2022-10-26T05:24:15;7.10;;;3.30;;
64037;SDS011;54641;50.168;8.492;2022-10-26T05:26:46;6.90;;;2.50;;
64037;SDS011;54641;50.168;8.492;2022-10-26T05:29:16;4.90;;;2.10;;
64037;SDS011;54641;50.168;8.492;2022-10-26T05:31:47;6.00;;;2.50;;
64037;SDS011;54641;50.168;8.492;2022-10-26T05:34:17;6.40;;;2.50;;
64037;SDS011;54641;50.168;8.492;2022-10-26T05:36:48;5.70;;;2.40;;
64037;SDS011;54641;50.168;8.492;2022-10-26T05:39:18;4.40;;;2.20;;
64037;SDS011;54641;50.168;8.492;2022-10-26T05:41:49;4.20;;;2.10;;
64037;SDS011;54641;50.168;8.492;2022-10-26T05:44:19;4.20;;;2.50;;
64037;SDS011;54641;50.168;8.492;2022-10-26T05:46:50;5.00;;;2.10;;
64037;SDS011;54641;50.168;8.492;2022-10-26T05:49:20;7.80;;;2.40;;
64037;SDS011;54641;50.168;8.492;2022-10-26T05:51:51;12.80;;;3.00;;
64037;SDS011;54641;50.168;8.492;2022-10-26T05:54:21;5.40;;;2.30;;
64037;SDS011;54641;50.168;8.492;2022-10-26T05:56:52;7.90;;;2.50;;
64037;SDS011;54641;50.168;8.492;2022-10-26T05:59:26;6.30;;;2.70;;
64037;SDS011;54641;50.168;8.492;2022-10-26T06:02:03;5.70;;;3.30;;
64037;SDS011;54641;50.168;8.492;2022-10-26T06:04:40;6.40;;;2.80;;
64037;SDS011;54641;50.168;8.492;2022-10-26T06:07:17;7.00;;;2.60;;
64037;SDS011;54641;50.168;8.492;2022-10-26T06:09:49;10.30;;;2.80;;
64037;SDS011;54641;50.168;8.492;2022-10-26T06:12:21;8.60;;;3.60;;
64037;SDS011;54641;50.168;8.492;2022-10-26T06:14:53;7.00;;;2.40;;
64037;SDS011;54641;50.168;8.492;2022-10-26T06:17:28;4.60;;;2.30;;
64037;SDS011;54641;50.168;8.492;2022-10-26T06:20:10;5.20;;;2.80;;
64037;SDS011;54641;50.168;8.492;2022-10-26T06:22:52;5.60;;;2.80;;
64037;SDS011;54641;50.168;8.492;2022-10-26T06:25:32;3.40;;;2.00;;
64037;SDS011;54641;50.168;8.492;2022-10-26T06:28:11;5.50;;;2.60;;
64037;SDS011;54641;50.168;8.492;2022-10-26T06:30:47;5.00;;;2.40;;
64037;SDS011;54641;50.168;8.492;2022-10-26T06:33:17;5.60;;;2.40;;
64037;SDS011;54641;50.168;8.492;2022-10-26T06:35:59;5.10;;;2.50;;
64037;SDS011;54641;50.168;8.492;2022-10-26T06:38:35;5.00;;;2.20;;
64037;SDS011;54641;50.168;8.492;2022-10-26T06:41:11;4.90;;;2.10;;
64037;SDS011;54641;50.168;8.492;2022-10-26T06:43:46;7.30;;;2.80;;
64037;SDS011;54641;50.168;8.492;2022-10-26T06:46:19;6.60;;;2.20;;
64037;SDS011;54641;50.168;8.492;2022-10-26T06:48:55;8.40;;;2.80;;
64037;SDS011;54641;50.168;8.492;2022-10-26T06:51:28;6.80;;;2.20;;
64037;SDS011;54641;50.168;8.492;2022-10-26T06:54:02;8.80;;;3.30;;
64037;SDS011;54641;50.168;8.492;2022-10-26T06:56:36;9.50;;;2.50;;
64037;SDS011;54641;50.168;8.492;2022-10-26T06:59:08;7.40;;;2.80;;
64037;SDS011;54641;50.168;8.492;2022-10-26T07:01:44;5.60;;;3.00;;
64037;SDS011;54641;50.168;8.492;2022-10-26T07:04:15;4.30;;;2.20;;
64037;SDS011;54641;50.168;8.492;2022-10-26T07:06:45;5.40;;;2.20;;
64037;SDS011;54641;50.168;8.492;2022-10-26T07:09:16;6.60;;;2.40;;
64037;SDS011;54641;50.168;8.492;2022-10-26T07:11:46;10.20;;;3.20;;
64037;SDS011;54641;50.168;8.492;2022-10-26T07:14:17;5.10;;;3.20;;
64037;SDS011;54641;50.168;8.492;2022-10-26T07:16:47;6.70;;;2.90;;
64037;SDS011;54641;50.168;8.492;2022-10-26T07:19:18;6.80;;;2.60;;
64037;SDS011;54641;50.168;8.492;2022-10-26T07:21:48;11.80;;;2.60;;
64037;SDS011;54641;50.168;8.492;2022-10-26T07:24:19;5.70;;;2.50;;
64037;SDS011;54641;50.168;8.492;2022-10-26T07:26:50;6.00;;;2.70;;
64037;SDS011;54641;50.168;8.492;2022-10-26T07:31:52;7.40;;;3.50;;
64037;SDS011;54641;50.168;8.492;2022-10-26T07:34:23;5.40;;;2.80;;
64037;SDS011;54641;50.168;8.492;2022-10-26T07:36:53;7.70;;;3.30;;
64037;SDS011;54641;50.168;8.492;2022-10-26T07:39:25;26.60;;;10.40;;
64037;SDS011;54641;50.168;8.492;2022-10-26T07:41:59;7.80;;;3.90;;
64037;SDS011;54641;50.168;8.492;2022-10-26T07:44:29;11.20;;;3.30;;
64037;SDS011;54641;50.168;8.492;2022-10-26T07:47:00;7.40;;;4.00;;
64037;SDS011;54641;50.168;8.492;2022-10-26T07:49:32;5.50;;;3.20;;
64037;SDS011;54641;50.168;8.492;2022-10-26T07:52:03;8.40;;;3.50;;
64037;SDS011;54641;50.168;8.492;2022-10-26T07:54:34;8.50;;;3.70;;
64037;SDS011;54641;50.168;8.492;2022-10-26T07:57:04;7.10;;;3.80;;
64037;SDS011;54641;50.168;8.492;2022-10-26T07:59:35;7.80;;;3.50;;
64037;SDS011;54641;50.168;8.492;2022-10-26T08:02:08;9.30;;;4.20;;
64037;SDS011;54641;50.168;8.492;2022-10-26T08:04:38;6.60;;;3.70;;
64037;SDS011;54641;50.168;8.492;2022-10-26T08:07:09;6.30;;;3.40;;
64037;SDS011;54641;50.168;8.492;2022-10-26T08:09:39;11.50;;;3.80;;
64037;SDS011;54641;50.168;8.492;2022-10-26T08:12:10;5.90;;;4.10;;
64037;SDS011;54641;50.168;8.492;2022-10-26T08:14:43;6.40;;;3.50;;
64037;SDS011;54641;50.168;8.492;2022-10-26T08:17:16;9.50;;;4.40;;
64037;SDS011;54641;50.168;8.492;2022-10-26T08:19:52;8.10;;;4.40;;
64037;SDS011;54641;50.168;8.492;2022-10-26T08:22:22;10.40;;;4.70;;
64037;SDS011;54641;50.168;8.492;2022-10-26T08:24:53;10.00;;;4.70;;
64037;SDS011;54641;50.168;8.492;2022-10-26T08:27:26;8.00;;;4.70;;
64037;SDS011;54641;50.168;8.492;2022-10-26T08:29:57;6.70;;;4.00;;
64037;SDS011;54641;50.168;8.492;2022-10-26T08:32:28;9.80;;;4.90;;
64037;SDS011;54641;50.168;8.492;2022-10-26T08:35:00;6.50;;;4.30;;
64037;SDS011;54641;50.168;8.492;2022-10-26T08:37:30;9.90;;;4.60;;
64037;SDS011;54641;50.168;8.492;2022-10-26T08:44:47;9.30;;;4.80;;
64037;SDS011;54641;50.168;8.492;2022-10-26T08:47:18;6.10;;;3.80;;
64037;SDS011;54641;50.168;8.492;2022-10-26T08:49:51;8.10;;;4.70;;
64037;SDS011;54641;50.168;8.492;2022-10-26T08:52:27;9.60;;;4.80;;
64037;SDS011;54641;50.168;8.492;2022-10-26T08:55:00;8.60;;;4.20;;
64037;SDS011;54641;50.168;8.492;2022-10-26T08:57:34;8.10;;;4.30;;
64037;SDS011;54641;50.168;8.492;2022-10-26T09:00:09;7.10;;;4.40;;
64037;SDS011;54641;50.168;8.492;2022-10-26T09:02:43;8.80;;;4.60;;
64037;SDS011;54641;50.168;8.492;2022-10-26T09:05:14;7.60;;;4.20;;
64037;SDS011;54641;50.168;8.492;2022-10-26T09:07:49;11.40;;;4.30;;
64037;SDS011;54641;50.168;8.492;2022-10-26T09:10:26;9.10;;;4.80;;
64037;SDS011;54641;50.168;8.492;2022-10-26T09:13:04;8.00;;;4.30;;
64037;SDS011;54641;50.168;8.492;2022-10-26T09:15:39;7.70;;;4.20;;
64037;SDS011;54641;50.168;8.492;2022-10-26T09:18:20;7.80;;;4.60;;
64037;SDS011;54641;50.168;8.492;2022-10-26T09:21:05;9.50;;;4.70;;
64037;SDS011;54641;50.168;8.492;2022-10-26T09:23:46;8.00;;;4.80;;
64037;SDS011;54641;50.168;8.492;2022-10-26T09:26:28;6.70;;;4.30;;
64037;SDS011;54641;50.168;8.492;2022-10-26T09:29:02;6.60;;;4.00;;
64037;SDS011;54641;50.168;8.492;2022-10-26T09:31:37;10.90;;;4.80;;
64037;SDS011;54641;50.168;8.492;2022-10-26T09:34:13;6.00;;;4.60;;
64037;SDS011;54641;50.168;8.492;2022-10-26T09:36:47;10.80;;;4.70;;
64037;SDS011;54641;50.168;8.492;2022-10-26T09:39:25;7.40;;;3.80;;
64037;SDS011;54641;50.168;8.492;2022-10-26T09:42:02;10.60;;;4.30;;
64037;SDS011;54641;50.168;8.492;2022-10-26T09:44:39;7.40;;;4.20;;
64037;SDS011;54641;50.168;8.492;2022-10-26T09:47:14;9.20;;;4.60;;
64037;SDS011;54641;50.168;8.492;2022-10-26T09:49:53;7.40;;;3.80;;
64037;SDS011;54641;50.168;8.492;2022-10-26T09:52:26;7.30;;;3.60;;
64037;SDS011;54641;50.168;8.492;2022-10-26T09:54:57;8.30;;;4.20;;
64037;SDS011;54641;50.168;8.492;2022-10-26T09:57:27;7.00;;;3.70;;
64037;SDS011;54641;50.168;8.492;2022-10-26T09:59:58;7.60;;;3.20;;
64037;SDS011;54641;50.168;8.492;2022-10-26T10:02:34;7.70;;;3.80;;
64037;SDS011;54641;50.168;8.492;2022-10-26T10:05:24;9.20;;;3.80;;
64037;SDS011;54641;50.168;8.492;2022-10-26T10:08:17;7.50;;;3.80;;
64037;SDS011;54641;50.168;8.492;2022-10-26T10:10:56;7.80;;;4.00;;
64037;SDS011;54641;50.168;8.492;2022-10-26T10:13:29;10.30;;;4.00;;
64037;SDS011;54641;50.168;8.492;2022-10-26T10:18:33;9.60;;;4.40;;
64037;SDS011;54641;50.168;8.492;2022-10-26T10:21:05;7.60;;;4.30;;
64037;SDS011;54641;50.168;8.492;2022-10-26T10:23:45;8.30;;;4.00;;
64037;SDS011;54641;50.168;8.492;2022-10-26T10:26:18;10.10;;;4.10;;
64037;SDS011;54641;50.168;8.492;2022-10-26T10:28:56;9.20;;;4.00;;
64037;SDS011;54641;50.168;8.492;2022-10-26T10:31:28;6.40;;;3.60;;
64037;SDS011;54641;50.168;8.492;2022-10-26T10:34:01;7.90;;;3.90;;
64037;SDS011;54641;50.168;8.492;2022-10-26T10:36:44;7.50;;;3.90;;
64037;SDS011;54641;50.168;8.492;2022-10-26T10:39:23;9.80;;;4.10;;
64037;SDS011;54641;50.168;8.492;2022-10-26T10:42:03;6.50;;;3.50;;
64037;SDS011;54641;50.168;8.492;2022-10-26T10:44:34;5.20;;;3.60;;
64037;SDS011;54641;50.168;8.492;2022-10-26T10:47:05;9.10;;;3.70;;
64037;SDS011;54641;50.168;8.492;2022-10-26T10:49:42;8.20;;;3.70;;
64037;SDS011;54641;50.168;8.492;2022-10-26T10:52:27;6.70;;;4.00;;
64037;SDS011;54641;50.168;8.492;2022-10-26T10:55:09;7.40;;;3.00;;
64037;SDS011;54641;50.168;8.492;2022-10-26T10:57:51;9.00;;;3.70;;
64037;SDS011;54641;50.168;8.492;2022-10-26T11:00:28;9.00;;;3.80;;
64037;SDS011;54641;50.168;8.492;2022-10-26T11:08:38;8.10;;;4.00;;
64037;SDS011;54641;50.168;8.492;2022-10-26T11:11:11;10.70;;;3.40;;
64037;SDS011;54641;50.168;8.492;2022-10-26T11:13:47;7.80;;;4.00;;
64037;SDS011;54641;50.168;8.492;2022-10-26T11:16:21;7.40;;;4.20;;
64037;SDS011;54641;50.168;8.492;2022-10-26T11:18:55;9.10;;;4.40;;
64037;SDS011;54641;50.168;8.492;2022-10-26T11:21:30;7.10;;;4.50;;
64037;SDS011;54641;50.168;8.492;2022-10-26T11:24:09;9.20;;;4.60;;
64037;SDS011;54641;50.168;8.492;2022-10-26T11:26:44;6.00;;;4.20;;
64037;SDS011;54641;50.168;8.492;2022-10-26T11:29:21;7.50;;;4.60;;
64037;SDS011;54641;50.168;8.492;2022-10-26T11:32:02;8.70;;;4.30;;
64037;SDS011;54641;50.168;8.492;2022-10-26T11:34:42;9.80;;;4.70;;
64037;SDS011;54641;50.168;8.492;2022-10-26T11:37:18;10.30;;;4.90;;
64037;SDS011;54641;50.168;8.492;2022-10-26T11:39:59;8.00;;;4.60;;
64037;SDS011;54641;50.168;8.492;2022-10-26T11:42:33;8.20;;;3.90;;
64037;SDS011;54641;50.168;8.492;2022-10-26T11:45:08;10.40;;;4.80;;
64037;SDS011;54641;50.168;8.492;2022-10-26T11:47:45;7.70;;;4.20;;
64037;SDS011;54641;50.168;8.492;2022-10-26T11:50:20;8.90;;;3.90;;
64037;SDS011;54641;50.168;8.492;2022-10-26T11:52:53;6.50;;;3.60;;
64037;SDS011;54641;50.168;8.492;2022-10-26T11:55:27;7.30;;;4.00;;
64037;SDS011;54641;50.168;8.492;2022-10-26T11:57:59;10.20;;;4.30;;
64037;SDS011;54641;50.168;8.492;2022-10-26T12:00:30;18.50;;;5.10;;
64037;SDS011;54641;50.168;8.492;2022-10-26T12:03:02;8.40;;;4.20;;
64037;SDS011;54641;50.168;8.492;2022-10-26T12:05:42;6.90;;;4.10;;
64037;SDS011;54641;50.168;8.492;2022-10-26T12:08:17;9.30;;;3.80;;
64037;SDS011;54641;50.168;8.492;2022-10-26T12:10:57;12.10;;;4.10;;
64037;SDS011;54641;50.168;8.492;2022-10-26T12:13:38;8.80;;;3.80;;
64037;SDS011;54641;50.168;8.492;2022-10-26T12:16:12;9.60;;;4.10;;
64037;SDS011;54641;50.168;8.492;2022-10-26T12:18:49;6.50;;;3.10;;
64037;SDS011;54641;50.168;8.492;2022-10-26T12:21:24;8.30;;;3.60;;
64037;SDS011;54641;50.168;8.492;2022-10-26T12:23:57;7.30;;;3.80;;
64037;SDS011;54641;50.168;8.492;2022-10-26T12:26:38;9.40;;;3.90;;
64037;SDS011;54641;50.168;8.492;2022-10-26T12:41:29;4.70;;;3.00;;
64037;SDS011;54641;50.168;8.492;2022-10-26T12:47:02;6.60;;;3.30;;
64037;SDS011;54641;50.168;8.492;2022-10-26T12:52:40;6.90;;;3.20;;
64037;SDS011;54641;50.168;8.492;2022-10-26T12:58:26;7.70;;;3.50;;
64037;SDS011;54641;50.168;8.492;2022-10-26T13:04:31;10.90;;;3.90;;
64037;SDS011;54641;50.168;8.492;2022-10-26T13:07:22;10.30;;;3.80;;
64037;SDS011;54641;50.168;8.492;2022-10-26T13:09:58;6.60;;;3.60;;
64037;SDS011;54641;50.168;8.492;2022-10-26T13:12:38;9.90;;;3.90;;
64037;SDS011;54641;50.168;8.492;2022-10-26T13:15:22;7.90;;;3.20;;
64037;SDS011;54641;50.168;8.492;2022-10-26T13:18:00;8.70;;;3.50;;
64037;SDS011;54641;50.168;8.492;2022-10-26T13:20:51;8.00;;;3.40;;
64037;SDS011;54641;50.168;8.492;2022-10-26T13:23:34;8.60;;;3.20;;
64037;SDS011;54641;50.168;8.492;2022-10-26T13:26:09;6.00;;;3.00;;
64037;SDS011;54641;50.168;8.492;2022-10-26T13:36:26;8.80;;;3.20;;
64037;SDS011;54641;50.168;8.492;2022-10-26T13:41:30;10.20;;;3.40;;
64037;SDS011;54641;50.168;8.492;2022-10-26T13:44:03;7.00;;;2.90;;
64037;SDS011;54641;50.168;8.492;2022-10-26T13:46:35;6.00;;;3.20;;
64037;SDS011;54641;50.168;8.492;2022-10-26T13:49:11;7.20;;;3.30;;
64037;SDS011;54641;50.168;8.492;2022-10-26T13:51:45;7.10;;;3.60;;
64037;SDS011;54641;50.168;8.492;2022-10-26T13:54:20;7.70;;;3.00;;
64037;SDS011;54641;50.168;8.492;2022-10-26T13:56:56;5.50;;;3.30;;
64037;SDS011;54641;50.168;8.492;2022-10-26T13:59:32;10.50;;;3.30;;
64037;SDS011;54641;50.168;8.492;2022-10-26T14:02:06;7.50;;;3.00;;
64037;SDS011;54641;50.168;8.492;2022-10-26T14:04:45;7.50;;;3.00;;
64037;SDS011;54641;50.168;8.492;2022-10-26T14:07:17;9.20;;;3.50;;
64037;SDS011;54641;50.168;8.492;2022-10-26T14:09:51;7.10;;;2.80;;
64037;SDS011;54641;50.168;8.492;2022-10-26T14:12:23;7.40;;;3.30;;
64037;SDS011;54641;50.168;8.492;2022-10-26T14:15:00;7.60;;;2.90;;
64037;SDS011;54641;50.168;8.492;2022-10-26T14:17:34;13.80;;;3.20;;
64037;SDS011;54641;50.168;8.492;2022-10-26T14:20:05;9.10;;;3.00;;
64037;SDS011;54641;50.168;8.492;2022-10-26T14:22:39;6.40;;;3.00;;
64037;SDS011;54641;50.168;8.492;2022-10-26T14:25:17;7.80;;;3.30;;
64037;SDS011;54641;50.168;8.492;2022-10-26T14:28:20;7.90;;;2.70;;
64037;SDS011;54641;50.168;8.492;2022-10-26T14:30:52;5.50;;;2.70;;
64037;SDS011;54641;50.168;8.492;2022-10-26T14:33:25;10.70;;;2.90;;
64037;SDS011;54641;50.168;8.492;2022-10-26T14:35:56;6.80;;;3.00;;
64037;SDS011;54641;50.168;8.492;2022-10-26T14:38:30;6.50;;;2.70;;
64037;SDS011;54641;50.168;8.492;2022-10-26T14:41:06;6.70;;;3.40;;
64037;SDS011;54641;50.168;8.492;2022-10-26T14:43:37;7.80;;;2.50;;
64037;SDS011;54641;50.168;8.492;2022-10-26T14:46:11;6.20;;;2.60;;
64037;SDS011;54641;50.168;8.492;2022-10-26T14:48:50;9.90;;;3.30;;
64037;SDS011;54641;50.168;8.492;2022-10-26T14:51:26;9.00;;;3.40;;
64037;SDS011;54641;50.168;8.492;2022-10-26T14:53:57;5.20;;;2.60;;
64037;SDS011;54641;50.168;8.492;2022-10-26T14:56:29;11.80;;;2.80;;
64037;SDS011;54641;50.168;8.492;2022-10-26T14:59:10;8.10;;;2.70;;
64037;SDS011;54641;50.168;8.492;2022-10-26T15:01:50;8.90;;;3.10;;
64037;SDS011;54641;50.168;8.492;2022-10-26T15:04:27;10.10;;;4.60;;
64037;SDS011;54641;50.168;8.492;2022-10-26T15:07:13;8.00;;;3.60;;
64037;SDS011;54641;50.168;8.492;2022-10-26T15:09:45;7.70;;;3.40;;
64037;SDS011;54641;50.168;8.492;2022-10-26T15:12:21;6.90;;;3.30;;
64037;SDS011;54641;50.168;8.492;2022-10-26T15:14:55;7.80;;;4.40;;
64037;SDS011;54641;50.168;8.492;2022-10-26T15:17:35;9.70;;;2.80;;
64037;SDS011;54641;50.168;8.492;2022-10-26T15:24:16;9.50;;;3.00;;
64037;SDS011;54641;50.168;8.492;2022-10-26T15:26:58;12.90;;;3.30;;
64037;SDS011;54641;50.168;8.492;2022-10-26T15:29:36;7.70;;;2.70;;
64037;SDS011;54641;50.168;8.492;2022-10-26T15:38:00;6.80;;;2.60;;
64037;SDS011;54641;50.168;8.492;2022-10-26T15:40:31;9.20;;;2.90;;
64037;SDS011;54641;50.168;8.492;2022-10-26T15:45:33;5.90;;;2.90;;
64037;SDS011;54641;50.168;8.492;2022-10-26T15:48:21;8.20;;;2.50;;
64037;SDS011;54641;50.168;8.492;2022-10-26T15:50:53;6.60;;;2.80;;
64037;SDS011;54641;50.168;8.492;2022-10-26T15:53:24;6.20;;;2.50;;
64037;SDS011;54641;50.168;8.492;2022-10-26T15:55:56;10.30;;;3.40;;
64037;SDS011;54641;50.168;8.492;2022-10-26T15:58:27;9.10;;;3.40;;
64037;SDS011;54641;50.168;8.492;2022-10-26T16:00:59;7.70;;;3.20;;
64037;SDS011;54641;50.168;8.492;2022-10-26T16:03:29;8.10;;;3.10;;
64037;SDS011;54641;50.168;8.492;2022-10-26T16:06:00;9.60;;;3.40;;
64037;SDS011;54641;50.168;8.492;2022-10-26T16:08:32;10.20;;;3.70;;
64037;SDS011;54641;50.168;8.492;2022-10-26T16:11:02;7.00;;;2.80;;
64037;SDS011;54641;50.168;8.492;2022-10-26T16:13:33;7.50;;;2.90;;
64037;SDS011;54641;50.168;8.492;2022-10-26T16:16:04;10.60;;;3.00;;
64037;SDS011;54641;50.168;8.492;2022-10-26T16:18:39;8.20;;;3.10;;
64037;SDS011;54641;50.168;8.492;2022-10-26T16:21:13;7.10;;;3.30;;
64037;SDS011;54641;50.168;8.492;2022-10-26T16:23:45;13.40;;;3.40;;
64037;SDS011;54641;50.168;8.492;2022-10-26T16:26:17;6.90;;;3.10;;
64037;SDS011;54641;50.168;8.492;2022-10-26T16:28:48;8.90;;;2.70;;
64037;SDS011;54641;50.168;8.492;2022-10-26T16:31:19;10.50;;;4.90;;
64037;SDS011;54641;50.168;8.492;2022-10-26T16:33:50;10.10;;;3.40;;
64037;SDS011;54641;50.168;8.492;2022-10-26T16:36:20;10.30;;;3.40;;
64037;SDS011;54641;50.168;8.492;2022-10-26T16:38:51;10.40;;;3.20;;